Abisko, Sweden

6:38 AM CEST on July 30, 2014 (GMT +0200)
Bardu (ITROMSBA3) Elev 1663 ft | 68.66 °N, 18.88 °E | Change Station

Current weather conditions updated 8 minutes ago

Mostly Cloudy
Mostly Cloudy
51.5 °F
Feels Like 51.5 °F
N
13.0
Wind Variable Wind from ENE
Gusts 20.0 mph

Today is forecast to be nearly the same temperature as yesterday. Cloudy, periods of rain tonight.

Today
High -- | Low -- °F
--% Chance of Precip.
Yesterday
High -- | Low -- °F
Precip. -- in
2:40 AM 10:56 PM
Waxing Crescent, 9% visible
Pressure 29.74 in
Visibility 6.2 miles
Clouds Few 4000 ft
Mostly Cloudy 11000 ft
Dew Point 48 °F
Humidity 88%
Rainfall 0.00 in
Snow Depth Not available.
UV 0 out of 12
Pollen Not available.
Air Quality Not available.
Flu Activity Not available.
METAR ENDU 300420Z VRB01KT 9999 FEW040 BKN110 11/09 Q1007

More Conditions Fewer Conditions

Pressure 29.74 in
Visibility 6.2 miles
Clouds Few 4000 ft
Mostly Cloudy 11000 ft
Dew Point 48 °F
Humidity 88%
Rainfall 0.00 in
Snow Depth Not available.
UV 0 out of 12
Pollen Not available.
Air Quality Not available.
Flu Activity Not available.
METAR ENDU 300420Z VRB01KT 9999 FEW040 BKN110 11/09 Q1007

More Conditions Fewer Conditions

10-Day Weather Forecast

Almanac

Astronomy

Jul. 30, 2014 Rise Set
Actual Time 2:40 AM CEST 10:56 PM CEST
Civil Twilight Sun does not rise Sun does not rise
Nautical Twilight Sun does not rise Sun does not rise
Astronomical Twilight Sun does not rise Sun does not rise
Moon 8:30 AM CEST 9:44 PM CEST
Length of Visible Light 24h 00m
Length of Day
20h 15m
Tomorrow will be 11m 28s shorter.
Waxing Crescent, 9% of the Moon is Illuminated
Today
Waxing Crescent
Aug 3
First Quarter
Aug 10
Full
Aug 17
Last Quarter
Aug 25
New

Yesterday's Extremes

Country Highs Country Lows

Community

WunderPhotos

Upload Photos

1,739,000 photos uploaded!

WunderBlogs® & News

By Dr. Jeff Masters
Director of Meteorology, Weather Underground
By Kari Strenfel
Meteorologist, Weather Underground
By Christopher C. Burt
Weather Historian, Weather Underground
July 29, 2014
July 29, 2014
July 29, 2014

Nearby

Snow Depth

Not available.

Earthquake Activity

City Distance Mag. Time & Date
No recent earthquake activity has been reported nearby.
Minimum magnitude displayed is 2.5.

Coastal Water Temperatures

Place Temperature
No Stations Reporting

Nearby Weather Stations

Station Location Temp. Dew Point Humidity Wind Precip. Elev Updated Type
Bardu, Bardu 51.5 °F 48 °F 88% ENE  at  13.0 mph 0.00 in / hr 1663 ft 6:29 AM CEST Normal
STF Abisko, Abisko 51.3 °F 48 °F 87% NNE  at  0.0 mph - / hr 2985 ft 6:25 AM CEST Normal

Show More Stations Show Fewer Stations